Amma, WV

12:33 PM EDT on August 20, 2014 (GMT -0400)
Park Avenue | Change Station
CLOSE
Current Station
Personal Weather Station
Location: Spencer, WV
Elevation: 820 ft
Nearby Weather Stations

Elev 820 ft 38.79 °N, 81.36 °W | Updated 1 second ago

Mostly Cloudy
Mostly Cloudy
81.1 °F
Feels Like 85 °F
N
1.0
Wind Variable Wind from SSW
Gusts 8.0 mph

Today
High -- | Low -- °F
--% Chance of Precip.
Yesterday
High -- | Low -- °F
Precip. -- in
6:43 AM 8:12 PM
Waning Crescent, 20% visible
Pressure 29.97 in
Visibility 10.0 miles
Clouds Scattered Clouds 1800 ft
Scattered Clouds 12000 ft
Mostly Cloudy 25000 ft
Heat Index 85 °F
Dew Point 70 °F
Humidity 70%
Rainfall 0.02 in
Snow Depth Not available.
UV 5 out of 12
Pollen 7.00 out of 12
Air Quality Not available.
Flu Activity Not available.
METAR KCRW 201554Z VRB05KT 10SM SCT018 SCT120 BKN250 26/21 A3000 RMK AO2 SLP148 T02560206

More Conditions Fewer Conditions

Pressure 29.97 in
Visibility 10.0 miles
Clouds Scattered Clouds 1800 ft
Scattered Clouds 12000 ft
Mostly Cloudy 25000 ft
Heat Index 85 °F
Dew Point 70 °F
Humidity 70%
Rainfall 0.02 in
Snow Depth Not available.
UV 5 out of 12
Pollen 7.00 out of 12
Air Quality Not available.
Flu Activity Not available.
METAR KCRW 201554Z VRB05KT 10SM SCT018 SCT120 BKN250 26/21 A3000 RMK AO2 SLP148 T02560206

More Conditions Fewer Conditions

10-Day Weather Forecast

Almanac

Astronomy

Aug. 20, 2014 Rise Set
Actual Time 6:43 AM EDT 8:12 PM EDT
Civil Twilight 6:15 AM EDT 8:40 PM EDT
Nautical Twilight 5:42 AM EDT 9:13 PM EDT
Astronomical Twilight 5:06 AM EDT 9:49 PM EDT
Moon 2:23 AM EDT 4:55 PM EDT
Length of Visible Light 14h 24m
Length of Day
13h 28m
Tomorrow will be 2m 16s shorter.
Waning Crescent, 20% of the Moon is Illuminated
Today
Waning Crescent
Aug 25
New
Sep 2
First Quarter
Sep 8
Full
Sep 15
Last Quarter

Today's Extremes

State Highs State Lows

Community

WunderPhotos

Upload Photos

1,745,689 photos uploaded!

Nearby

Snow Depth

Station Depth Elevation
No new snow has been reported.

Earthquake Activity

City Distance Mag. Time & Date
No recent earthquake activity has been reported nearby.
Minimum magnitude displayed is 2.5.

Coastal Water Temperatures

Place Temperature
No Stations Reporting

Nearby Weather Stations